Station FMRF1 - 8725520 - Fort Myers, FL Image indicating link to RSS feed of recent meteorological observations for station FMRF1


Conditions at FMRF1 as of
(12:18 pm EDT)
1618 GMT on 09/06/2026:
     

Click on the graph icon in the table below to see a time series plot of the last five days of that observation.

5-day plot - Wind Direction Wind Direction (WDIR): W ( 270 deg true )
5-day plot - Wind Speed Wind Speed (WSPD): 1.9 kts
5-day plot - Wind Gust Wind Gust (GST): 2.9 kts
5-day plot - Atmospheric Pressure Atmospheric Pressure (PRES):29.96 in
5-day plot - Water Temperature Water Temperature (WTMP): 88.9 °F
5-day plot - Wind Speed at 10 Meters Wind Speed at 10 meters (WSPD10M): 1.9 kts
5-day plot - Wind Speed at 20 Meters Wind Speed at 20 meters (WSPD20M): 3.9 kts
5-day plot -  Wind Speed, Wind Gust and Atmospheric Pressure Combined plot of Wind Speed, Gust, and Air Pressure
NOS Water Level Observation Network Water Level
Previous observations
TIME
(EDT)
5-day plot - Wind Direction
WDIR
 
5-day plot - Wind Speed
WSPD
kts
5-day plot - Wind Gust
GST
kts
5-day plot - Wave Height
WVHT
ft
5-day plot - Dominant Wave Period
DPD
sec
5-day plot - Average Wave Period
APD
sec
5-day plot - Mean Wave Direction
MWD
 
5-day plot - Atmospheric Pressure
PRES
in
5-day plot - Pressure Tendency
PTDY
in
5-day plot - Air Temperature
ATMP
°F
5-day plot - Water Temperature
WTMP
°F
5-day plot - Dew Point
DEWP
°F
5-day plot - Salinity
SAL
psu
5-day plot - Visibility
VIS
nmi
5-day plot - Tide (above MLLW)
TIDE
ft
2026-09-06 12:12 pm W 1.9 4.1----29.96-- 88.9----
2026-09-06 12:06 pm W 2.9 4.1----29.96-- 88.9----
2026-09-06 12:00 pm W 2.9 4.1----29.97+0.00 84.7 88.7----
2026-09-06 11:54 am W 1.9 2.9----29.97- 84.7 88.7----
2026-09-06 11:48 am W 1.9 1.9----29.97- 84.9 88.7----
2026-09-06 11:42 amWNW 1.0 1.9----29.97- 86.0 88.7----
2026-09-06 11:36 am NW 1.0 1.9----29.97- 84.9 88.7----
2026-09-06 11:30 amWNW 1.9 1.9----29.97- 84.0 88.9----
2026-09-06 11:24 amWNW 1.9 2.9----29.97- 83.3 88.9----
2026-09-06 11:18 amWNW 1.9 2.9----29.97-- 88.9----
2026-09-06 11:12 am NW 2.9 4.1----29.98-- 88.7----
2026-09-06 11:06 amNNW 1.9 4.1----29.97-- 88.9----
2026-09-06 11:00 amNNW 1.9 2.9----29.97+0.03 82.0 88.7----
2026-09-06 10:54 amNNW 2.9 2.9----29.97- 81.7 88.9----
2026-09-06 10:48 am NW 1.9 6.0----29.97- 81.3 88.7----
2026-09-06 10:42 am W 5.1 9.9----29.97- 81.0 88.7----
2026-09-06 10:36 am W 9.9 12.0----29.98- 81.1 88.7----
2026-09-06 10:30 amWNW 9.9 12.0----29.97- 82.8 88.7----
2026-09-06 10:24 am NW 8.0 9.9----29.97- 83.5 88.7----
2026-09-06 10:18 amNNW 8.0 9.9----29.97-- 88.7----
2026-09-06 10:12 am NE 2.9 5.1----29.97-- 88.7----
2026-09-06 10:06 am E 4.1 5.1----29.97-- 88.7----
2026-09-06 10:00 am NE 2.9 5.1----29.98+0.06 84.7 88.5----
2026-09-06 09:54 am E 2.9 4.1----29.97- 85.3 88.5----
2026-09-06 09:48 amENE 2.9 2.9----29.97-- 88.5----
2026-09-06 09:42 amNNE 1.9 2.9----29.97-- 88.5----
2026-09-06 09:36 am N 1.9 2.9----29.97-- 88.5----
2026-09-06 09:30 am N 1.9 2.9----29.97- 85.3 88.5----
2026-09-06 09:24 am N 2.9 4.1----29.97- 84.7 88.5----
2026-09-06 09:18 amNNE 2.9 2.9----29.97-- 88.5----
2026-09-06 09:12 amNNE 1.9 1.9----29.97-- 88.7----
2026-09-06 09:06 am- 0.0 1.0----29.97-- 88.7----
2026-09-06 09:00 am- 0.0 1.9----29.96+0.07 86.9 88.7----
2026-09-06 08:54 am E 1.0 1.9----29.96- 86.2 88.7----
2026-09-06 08:48 am- 0.0 1.0----29.96-- 88.7----
2026-09-06 08:42 am- 0.0 1.0----29.96-- 88.7----
2026-09-06 08:36 am E 1.0 1.9----29.96-- 88.7----
2026-09-06 08:30 amENE 1.0 2.9----29.96- 82.9 88.7----
2026-09-06 08:24 am E 1.0 1.9----29.95- 82.8 88.7----
2026-09-06 08:18 am E 1.0 1.0----29.95-- 88.7----
2026-09-06 08:12 am SE 1.0 1.9----29.95-- 88.9----
2026-09-06 08:06 amESE 1.0 1.9----29.95-- 88.9----
2026-09-06 08:00 am E 1.0 1.9----29.95+0.06 79.3 88.9----
2026-09-06 07:54 am E 1.0 1.9----29.94- 79.3 88.9----
2026-09-06 07:48 am E 1.0 1.0----29.94-- 88.9----
2026-09-06 07:42 am SE 1.9 1.9----29.94-- 88.7----
2026-09-06 07:36 amSSE 1.9 1.9----29.94-- 88.7----
2026-09-06 07:30 am SE 1.0 1.9----29.94- 78.4 88.7----
2026-09-06 07:24 am E 1.9 4.1----29.94- 78.6 88.7----
2026-09-06 07:18 am E 1.9 4.1----29.93-- 88.7----
2026-09-06 07:12 am E 1.9 2.9----29.93-- 88.9----
2026-09-06 07:06 am SE 1.9 2.9----29.92-- 88.9----
2026-09-06 07:00 amSSE 2.9 4.1----29.92+0.02 78.6 88.9----
2026-09-06 06:54 amSSE 1.9 2.9----29.91- 78.4 88.9----
2026-09-06 06:48 am SE 1.9 2.9----29.91- 78.6 88.9----
2026-09-06 06:42 amESE 2.9 4.1----29.91- 78.4 88.9----
2026-09-06 06:36 amESE 2.9 2.9----29.91- 78.8 88.9----
2026-09-06 06:30 amSSE 1.0 2.9----29.90- 79.0 88.9----
2026-09-06 06:24 am SE 1.9 4.1----29.90- 78.8 88.9----
2026-09-06 06:18 am SE 2.9 4.1----29.90-- 89.1----
2026-09-06 06:12 amESE 1.9 2.9----29.90-- 89.1----
2026-09-06 06:06 amSSE 1.9 5.1----29.90-- 89.1----
2026-09-06 06:00 amSSE 2.9 5.1----29.89+0.00 79.3 89.1----
2026-09-06 05:54 am S 1.9 7.0----29.89- 79.3 89.1----
2026-09-06 05:48 am S 4.1 6.0----29.89- 79.0 89.1----
2026-09-06 05:42 am S 4.1 5.1----29.89- 79.0 89.1----
2026-09-06 05:36 amSSE 4.1 4.1----29.89- 78.8 89.1----
2026-09-06 05:30 amSSE 2.9 5.1----29.89- 79.2 89.1----
2026-09-06 05:24 amSSE 2.9 4.1----29.89- 79.0 89.1----
2026-09-06 05:18 amSSE 1.9 1.9----29.89-- 89.1----
2026-09-06 05:12 amSSE 1.9 4.1----29.89-- 89.1----
2026-09-06 05:06 am SE 1.9 5.1----29.89-- 89.2----
2026-09-06 05:00 am S 1.0 4.1----29.89-0.04 78.6 89.2----
2026-09-06 04:54 am S 2.9 4.1----29.89- 78.3 89.2----
2026-09-06 04:48 amSSE 1.9 2.9----29.89- 78.3 89.2----
2026-09-06 04:42 am SE 1.9 4.1----29.89- 78.3 89.2----
2026-09-06 04:36 am SE 2.9 4.1----29.89- 77.9 89.2----
2026-09-06 04:30 am SE 2.9 5.1----29.89- 78.1 89.2----
2026-09-06 04:24 am SE 2.9 4.1----29.89- 78.4 89.4----
2026-09-06 04:18 am SE 2.9 4.1----29.90-- 89.4----
2026-09-06 04:12 amSSE 2.9 2.9----29.89-- 89.4----
2026-09-06 04:06 am SE 2.9 4.1----29.89-- 89.4----
2026-09-06 04:00 am SE 1.9 1.9----29.89-0.06 79.2 89.4----
2026-09-06 03:54 am- 0.0 1.0----29.89- 79.5 89.4----
2026-09-06 03:48 am N 1.0 2.9----29.89- 79.3 89.4----
2026-09-06 03:42 am N 1.9 2.9----29.89- 79.3 89.4----
2026-09-06 03:36 amNNW 1.9 4.1----29.89- 79.5 89.4----
2026-09-06 03:30 amNNW 2.9 4.1----29.89- 79.7 89.6----
2026-09-06 03:24 amNNW 2.9 4.1----29.89- 79.7 89.6----
2026-09-06 03:18 am N 2.9 4.1----29.89-- 89.6----
2026-09-06 03:12 am N 2.9 4.1----29.89-- 89.6----
2026-09-06 03:06 am- 0.0 1.9----29.90-- 89.6----
2026-09-06 03:00 am- 0.0 1.0----29.90-0.05 79.7 89.6----
2026-09-06 02:54 am- 0.0 1.0----29.90- 79.5 89.6----
2026-09-06 02:48 am- 0.0 1.9----29.90- 79.3 89.6----
2026-09-06 02:42 am- 0.0 1.9----29.90- 79.0 89.6----
2026-09-06 02:36 am- 0.0 2.9----29.90- 78.8 89.6----
2026-09-06 02:30 amSSW 1.0 2.9----29.90- 78.4 89.6----
2026-09-06 02:24 am SW 1.9 2.9----29.91- 78.4 89.6----
2026-09-06 02:18 am SW 1.0 1.9----29.91-- 89.6----
2026-09-06 02:12 amSSW 1.0 2.9----29.91-- 89.6----
2026-09-06 02:06 am SW 1.0 2.9----29.92-- 89.6----
2026-09-06 02:00 amSSW 1.9 2.9----29.93-0.03 78.4 89.6----
2026-09-06 01:54 amWSW 1.9 2.9----29.93- 78.6 89.6----
2026-09-06 01:48 am SW 1.9 2.9----29.93- 78.6 89.6----
2026-09-06 01:42 amSSE 2.9 5.1----29.93- 78.4 89.6----
2026-09-06 01:36 amSSE 4.1 5.1----29.94- 78.6 89.6----
2026-09-06 01:30 am S 2.9 5.1----29.94- 78.4 89.6----
2026-09-06 01:24 amSSE 4.1 7.0----29.94- 78.4 89.6----
2026-09-06 01:18 am S 4.1 6.0----29.94-- 89.6----
2026-09-06 01:12 amSSE 5.1 8.0----29.95-- 89.8----
2026-09-06 01:06 amSSE 6.0 8.9----29.95-- 89.8----
2026-09-06 01:00 amSSE 6.0 8.9----29.95-0.02 78.6 89.8----
2026-09-06 12:54 amSSE 5.1 9.9----29.95- 78.8 89.8----
2026-09-06 12:48 amSSE 5.1 8.9----29.94- 78.8 89.8----
2026-09-06 12:42 amSSE 4.1 7.0----29.94- 78.8 89.8----
2026-09-06 12:36 am SE 5.1 7.0----29.94- 78.6 89.8----
2026-09-06 12:30 am SE 4.1 7.0----29.94- 78.8 89.8----
2026-09-06 12:24 am SE 5.1 8.0----29.94- 79.0 89.8----
2026-09-06 12:18 am SE 4.1 7.0----29.94-- 89.8----
2026-09-06 12:12 am SE 5.1 7.0----29.95-- 89.8----
2026-09-06 12:06 amSSE 5.1 7.0----29.94-- 90.0----
2026-09-06 12:00 am SE 4.1 6.0----29.94+0.00 79.3 90.0----
2026-09-05 11:54 pm SE 4.1 7.0----29.95- 79.5 90.0----
2026-09-05 11:48 pm SE 5.1 7.0----29.95- 79.2 90.0----
2026-09-05 11:42 pm SE 6.0 8.0----29.95- 79.2 90.0----
2026-09-05 11:36 pm SE 6.0 8.0----29.95- 79.3 90.0----
2026-09-05 11:30 pmSSE 6.0 8.9----29.95- 79.3 90.0----
2026-09-05 11:24 pm SE 7.0 8.9----29.95- 79.5 90.1----
2026-09-05 11:18 pm-------29.95- 79.9 90.1----
2026-09-05 11:12 pm-------29.96- 80.1 90.1----
2026-09-05 11:06 pm-------29.96- 80.2 90.1----
2026-09-05 11:00 pm SE 5.1 7.0----29.96+0.03 80.2 90.1----
2026-09-05 10:54 pmSSE 5.1 7.0----29.96- 80.4 90.1----
2026-09-05 10:48 pmSSE 4.1 6.0----29.96- 80.4 90.1----
2026-09-05 10:42 pmSSE 4.1 5.1----29.96- 80.6 90.1----
2026-09-05 10:36 pmSSE 4.1 6.0----29.96- 80.4 90.3----
2026-09-05 10:30 pm SE 2.9 6.0----29.97- 80.6 90.3----
2026-09-05 10:24 pmESE 4.1 6.0----29.97- 80.6 90.3----
2026-09-05 10:18 pmESE 6.0 8.9----29.97-- 90.3----
2026-09-05 10:12 pmESE 6.0 12.0----29.97-- 90.3----
2026-09-05 10:06 pm SE 6.0 9.9----29.97-- 90.3----
2026-09-05 10:00 pm SE 6.0 11.1----29.97+0.05 81.3 90.3----
2026-09-05 09:54 pm SE 9.9 12.0----29.97- 81.3 90.3----
2026-09-05 09:48 pm SE 6.0 9.9----29.98-- 90.5----
2026-09-05 09:42 pm SE 8.9 14.0----29.97-- 90.5----
2026-09-05 09:36 pmESE 6.0 8.9----29.97-- 90.5----
2026-09-05 09:30 pmESE 6.0 15.0----29.97- 82.8 90.5----
2026-09-05 09:24 pmESE 9.9 15.0----29.96- 82.9 90.5----
2026-09-05 09:18 pmENE 8.0 12.0----29.96-- 90.5----
2026-09-05 09:12 pm NW 2.9 5.1----29.95-- 90.5----
2026-09-05 09:06 pmWNW 4.1 5.1----29.94-- 90.7----
2026-09-05 09:00 pmWNW 4.1 5.1----29.95+0.04 86.7 90.7----
2026-09-05 08:54 pmWNW 4.1 6.0----29.95- 86.9 90.7----
2026-09-05 08:48 pmWNW 5.1 6.0----29.95- 86.7 90.7----
2026-09-05 08:42 pmWNW 4.1 5.1----29.95- 86.9 90.7----
2026-09-05 08:36 pmWNW 5.1 6.0----29.95- 86.9 90.7----
2026-09-05 08:30 pmWNW 5.1 6.0----29.95- 86.9 90.7----
2026-09-05 08:24 pmWNW 4.1 5.1----29.94- 87.1 90.7----
2026-09-05 08:18 pmWNW 5.1 7.0----29.94-- 90.7----
2026-09-05 08:12 pm W 6.0 8.0----29.93-- 90.7----
2026-09-05 08:06 pm W 7.0 8.0----29.93-- 90.7----
2026-09-05 08:00 pm W 7.0 8.0----29.93+0.02 87.6 90.7----
2026-09-05 07:54 pm W 6.0 8.0----29.93- 87.4 90.7----
2026-09-05 07:48 pm W 7.0 8.9----29.93-- 90.7----
2026-09-05 07:42 pm W 7.0 9.9----29.93-- 90.7----
2026-09-05 07:36 pm W 7.0 8.0----29.93-- 90.7----
2026-09-05 07:30 pm W 7.0 8.0----29.93- 88.9 90.9----
2026-09-05 07:24 pm W 7.0 8.9----29.93- 89.1 90.9----
2026-09-05 07:18 pmWNW 7.0 9.9----29.93-- 90.9----
2026-09-05 07:12 pm W 8.0 8.9----29.92-- 91.0----
2026-09-05 07:06 pmWNW 8.0 11.1----29.92-- 91.0----
2026-09-05 07:00 pm NW 9.9 11.1----29.92+0.00 90.1 91.0----
2026-09-05 06:54 pmWNW 8.0 12.0----29.92- 91.0 91.0----
2026-09-05 06:48 pmWNW 8.0 9.9----29.93- 91.0 91.0----
2026-09-05 06:42 pmWNW 8.9 9.9----29.93- 91.0 91.0----
2026-09-05 06:36 pmWNW 7.0 9.9----29.92- 91.4 91.0----
2026-09-05 06:30 pmWNW 6.0 7.0----29.93- 92.1 91.0----
2026-09-05 06:24 pmWNW 5.1 8.0----29.92- 91.9 91.0----
2026-09-05 06:18 pmWNW 7.0 9.9----29.92-- 91.0----
2026-09-05 06:12 pmWNW 8.0 9.9----29.91-- 91.0----
2026-09-05 06:06 pmWNW 8.9 11.1----29.91-- 91.0----
2026-09-05 06:00 pmWNW 8.0 12.0----29.91-0.03 91.4 91.0----
2026-09-05 05:54 pmWNW 8.9 11.1----29.91- 91.0 91.0----
2026-09-05 05:48 pmWNW 8.9 8.9----29.91- 91.2 91.0----
2026-09-05 05:42 pmWNW 8.0 9.9----29.91- 91.4 91.0----
2026-09-05 05:36 pmWNW 8.0 8.9----29.91- 91.0 91.0----
2026-09-05 05:30 pmWNW 8.0 9.9----29.91- 91.4 91.0----
2026-09-05 05:24 pmWNW 7.0 8.9----29.91- 91.2 90.9----
2026-09-05 05:18 pmWNW 7.0 9.9----29.91-- 90.9----
2026-09-05 05:12 pmWNW 8.0 11.1----29.91-- 91.0----
2026-09-05 05:06 pmWNW 8.9 9.9----29.91-- 91.0----
2026-09-05 05:00 pmWNW 7.0 8.9----29.91- 89.6 91.0----
2026-09-05 04:54 pmWNW 6.0 8.0----29.91- 89.4 91.0----
2026-09-05 04:48 pmWNW 8.0 8.9----29.91- 89.4 91.0----
2026-09-05 04:42 pmWNW 8.0 9.9----29.91- 89.8 91.0----
2026-09-05 04:36 pmWNW 7.0 9.9----29.91- 90.7 91.0----
2026-09-05 04:30 pmWNW 5.1 5.1----29.91- 91.4 91.0----
2026-09-05 04:24 pm W 1.0 1.9----29.91- 91.8 91.0----
2026-09-05 04:18 pm- 0.0 1.0----29.92-- 91.0----
2026-09-05 04:12 pm N 1.0 4.1----29.92-- 91.0----
2026-09-05 04:06 pmNNW 2.9 5.1----29.91-- 91.0----
2026-09-05 04:00 pmNNW 4.1 5.1----29.91-0.05 88.7 91.0----
2026-09-05 03:54 pmNNW 1.9 2.9----29.92- 88.2 91.0----
2026-09-05 03:48 pm N 1.9 2.9----29.92- 88.0 91.0----
2026-09-05 03:42 pmNNW 1.9 2.9----29.92- 87.6 91.0----
2026-09-05 03:36 pmNNW 1.9 2.9----29.92- 86.7 91.0----
2026-09-05 03:30 pmNNW 1.9 2.9----29.92- 85.6 90.3----
2026-09-05 03:24 pm N 1.9 1.9----29.93- 84.6 90.7----
2026-09-05 03:18 pm- 0.0 1.9----29.93-- 91.0----
2026-09-05 03:12 pm E 1.9 2.9----29.93-- 91.0----
2026-09-05 03:06 pm NE 2.9 4.1----29.94-- 91.0----
2026-09-05 03:00 pmNNE 4.1 5.1----29.94-0.04 82.8 91.0----
2026-09-05 02:54 pm N 5.1 7.0----29.94- 82.8 91.0----
2026-09-05 02:48 pmWNW 5.1 6.0----29.95- 83.5 91.0----
2026-09-05 02:42 pm NW 4.1 6.0----29.95- 82.6 91.0----
2026-09-05 02:36 pm NW 1.0 2.9----29.95- 81.7 91.0----
2026-09-05 02:30 pm S 1.9 4.1----29.96- 81.1 91.2----
2026-09-05 02:24 pm- 0.0 1.9----29.96- 82.0 91.2----
2026-09-05 02:18 pm- 0.0 7.0----29.96-- 91.2----
2026-09-05 02:12 pm NW 8.0 8.9----29.97-- 91.2----
2026-09-05 02:06 pmWNW 8.0 15.0----29.96-- 91.2----
2026-09-05 02:00 pm W 12.0 15.0------ 82.6 91.2----
2026-09-05 01:54 pm NW 15.0 19.0------ 82.9 91.2----
2026-09-05 01:48 pm NW 14.0 17.1----29.96- 84.0 91.0----
2026-09-05 01:42 pm NW 15.9 19.0----29.96- 84.7 90.9----
2026-09-05 01:36 pm NW 13.0 17.1----29.96- 87.1 90.3----
2026-09-05 01:30 pmWNW 12.0 15.0----29.96- 87.3 90.1----
2026-09-05 01:24 pmWNW 12.0 15.0----29.96- 86.9 90.1----
2026-09-05 01:18 pmWNW 8.0 9.9----29.96-- 90.0----
2026-09-05 01:12 pm W 9.9 13.0----29.96-- 90.0----
2026-09-05 01:06 pmWNW 11.1 12.0----29.97-- 90.0----
2026-09-05 01:00 pm W 8.0 9.9----29.97-0.02 87.8 90.0----
2026-09-05 12:54 pm W 7.0 8.9----29.97- 89.4 90.0----